sensor_id;sensor_type;location;lat;lon;timestamp;P1;durP1;ratioP1;P2;durP2;ratioP2
58918;SDS011;44704;50.122;19.932;2022-07-18T00:02:01;2.40;;;1.30;;
58918;SDS011;44704;50.122;19.932;2022-07-18T00:04:30;4.90;;;1.50;;
58918;SDS011;44704;50.122;19.932;2022-07-18T00:06:57;3.00;;;1.20;;
58918;SDS011;44704;50.122;19.932;2022-07-18T00:09:24;2.60;;;1.40;;
58918;SDS011;44704;50.122;19.932;2022-07-18T00:11:52;2.60;;;1.20;;
58918;SDS011;44704;50.122;19.932;2022-07-18T00:14:20;3.10;;;1.20;;
58918;SDS011;44704;50.122;19.932;2022-07-18T00:16:48;4.30;;;1.80;;
58918;SDS011;44704;50.122;19.932;2022-07-18T00:19:16;2.60;;;1.30;;
58918;SDS011;44704;50.122;19.932;2022-07-18T00:21:43;1.20;;;1.10;;
58918;SDS011;44704;50.122;19.932;2022-07-18T00:24:11;3.20;;;1.20;;
58918;SDS011;44704;50.122;19.932;2022-07-18T00:26:38;3.50;;;1.40;;
58918;SDS011;44704;50.122;19.932;2022-07-18T00:29:06;3.40;;;1.70;;
58918;SDS011;44704;50.122;19.932;2022-07-18T00:31:47;2.50;;;1.10;;
58918;SDS011;44704;50.122;19.932;2022-07-18T00:34:13;2.50;;;1.50;;
58918;SDS011;44704;50.122;19.932;2022-07-18T00:36:43;4.70;;;1.20;;
58918;SDS011;44704;50.122;19.932;2022-07-18T00:39:24;2.70;;;1.50;;
58918;SDS011;44704;50.122;19.932;2022-07-18T00:42:06;2.20;;;1.20;;
58918;SDS011;44704;50.122;19.932;2022-07-18T00:44:33;3.70;;;1.50;;
58918;SDS011;44704;50.122;19.932;2022-07-18T00:47:01;4.70;;;1.60;;
58918;SDS011;44704;50.122;19.932;2022-07-18T00:49:29;1.70;;;1.00;;
58918;SDS011;44704;50.122;19.932;2022-07-18T00:51:58;3.90;;;1.30;;
58918;SDS011;44704;50.122;19.932;2022-07-18T00:54:28;2.70;;;1.60;;
58918;SDS011;44704;50.122;19.932;2022-07-18T00:56:57;2.70;;;1.30;;
58918;SDS011;44704;50.122;19.932;2022-07-18T00:59:25;3.50;;;1.80;;
58918;SDS011;44704;50.122;19.932;2022-07-18T01:02:16;2.10;;;1.50;;
58918;SDS011;44704;50.122;19.932;2022-07-18T01:04:44;4.50;;;1.60;;
58918;SDS011;44704;50.122;19.932;2022-07-18T01:07:10;3.40;;;1.40;;
58918;SDS011;44704;50.122;19.932;2022-07-18T01:09:39;5.50;;;1.50;;
58918;SDS011;44704;50.122;19.932;2022-07-18T01:12:06;5.70;;;1.50;;
58918;SDS011;44704;50.122;19.932;2022-07-18T01:14:36;6.70;;;1.80;;
58918;SDS011;44704;50.122;19.932;2022-07-18T01:17:11;3.30;;;1.30;;
58918;SDS011;44704;50.122;19.932;2022-07-18T01:19:41;2.90;;;1.40;;
58918;SDS011;44704;50.122;19.932;2022-07-18T01:22:23;2.70;;;1.80;;
58918;SDS011;44704;50.122;19.932;2022-07-18T01:24:50;3.40;;;1.70;;
58918;SDS011;44704;50.122;19.932;2022-07-18T01:27:18;3.50;;;1.60;;
58918;SDS011;44704;50.122;19.932;2022-07-18T01:29:51;3.10;;;1.40;;
58918;SDS011;44704;50.122;19.932;2022-07-18T01:32:22;2.30;;;1.40;;
58918;SDS011;44704;50.122;19.932;2022-07-18T01:34:52;3.80;;;1.30;;
58918;SDS011;44704;50.122;19.932;2022-07-18T01:37:21;4.80;;;1.90;;
58918;SDS011;44704;50.122;19.932;2022-07-18T01:39:48;5.80;;;1.90;;
58918;SDS011;44704;50.122;19.932;2022-07-18T01:42:18;5.10;;;1.80;;
58918;SDS011;44704;50.122;19.932;2022-07-18T01:44:45;3.90;;;1.90;;
58918;SDS011;44704;50.122;19.932;2022-07-18T01:47:13;3.90;;;2.10;;
58918;SDS011;44704;50.122;19.932;2022-07-18T01:49:40;4.20;;;2.20;;
58918;SDS011;44704;50.122;19.932;2022-07-18T01:52:10;7.10;;;2.10;;
58918;SDS011;44704;50.122;19.932;2022-07-18T01:54:37;4.30;;;1.80;;
58918;SDS011;44704;50.122;19.932;2022-07-18T01:57:05;7.80;;;2.10;;
58918;SDS011;44704;50.122;19.932;2022-07-18T01:59:32;4.90;;;2.20;;
58918;SDS011;44704;50.122;19.932;2022-07-18T02:02:02;4.20;;;1.70;;
58918;SDS011;44704;50.122;19.932;2022-07-18T02:04:33;3.10;;;1.70;;
58918;SDS011;44704;50.122;19.932;2022-07-18T02:07:14;4.30;;;1.90;;
58918;SDS011;44704;50.122;19.932;2022-07-18T02:09:41;6.50;;;1.90;;
58918;SDS011;44704;50.122;19.932;2022-07-18T02:12:08;4.00;;;1.60;;
58918;SDS011;44704;50.122;19.932;2022-07-18T02:14:35;3.90;;;1.80;;
58918;SDS011;44704;50.122;19.932;2022-07-18T02:17:02;4.80;;;1.70;;
58918;SDS011;44704;50.122;19.932;2022-07-18T02:19:32;7.00;;;2.20;;
58918;SDS011;44704;50.122;19.932;2022-07-18T02:21:59;5.10;;;1.60;;
58918;SDS011;44704;50.122;19.932;2022-07-18T02:24:29;6.60;;;2.30;;
58918;SDS011;44704;50.122;19.932;2022-07-18T02:26:56;4.50;;;1.90;;
58918;SDS011;44704;50.122;19.932;2022-07-18T02:29:23;4.00;;;1.80;;
58918;SDS011;44704;50.122;19.932;2022-07-18T02:31:50;4.40;;;1.90;;
58918;SDS011;44704;50.122;19.932;2022-07-18T02:34:17;4.60;;;2.10;;
58918;SDS011;44704;50.122;19.932;2022-07-18T02:36:46;4.40;;;2.00;;
58918;SDS011;44704;50.122;19.932;2022-07-18T02:39:16;4.30;;;2.50;;
58918;SDS011;44704;50.122;19.932;2022-07-18T02:41:47;2.70;;;1.50;;
58918;SDS011;44704;50.122;19.932;2022-07-18T02:44:14;3.10;;;2.00;;
58918;SDS011;44704;50.122;19.932;2022-07-18T02:46:41;4.20;;;2.40;;
58918;SDS011;44704;50.122;19.932;2022-07-18T02:49:09;4.10;;;2.20;;
58918;SDS011;44704;50.122;19.932;2022-07-18T02:52:07;5.60;;;1.90;;
58918;SDS011;44704;50.122;19.932;2022-07-18T02:54:36;8.90;;;2.00;;
58918;SDS011;44704;50.122;19.932;2022-07-18T02:59:32;4.40;;;1.80;;
58918;SDS011;44704;50.122;19.932;2022-07-18T03:01:59;3.30;;;1.90;;
58918;SDS011;44704;50.122;19.932;2022-07-18T03:04:41;3.30;;;2.10;;
58918;SDS011;44704;50.122;19.932;2022-07-18T03:07:07;3.90;;;2.20;;
58918;SDS011;44704;50.122;19.932;2022-07-18T03:09:34;2.80;;;2.20;;
58918;SDS011;44704;50.122;19.932;2022-07-18T03:12:02;4.00;;;1.50;;
58918;SDS011;44704;50.122;19.932;2022-07-18T03:14:29;3.50;;;1.50;;
58918;SDS011;44704;50.122;19.932;2022-07-18T03:16:59;3.90;;;1.80;;
58918;SDS011;44704;50.122;19.932;2022-07-18T03:19:26;3.30;;;1.70;;
58918;SDS011;44704;50.122;19.932;2022-07-18T03:21:53;5.10;;;2.00;;
58918;SDS011;44704;50.122;19.932;2022-07-18T03:24:20;5.60;;;1.80;;
58918;SDS011;44704;50.122;19.932;2022-07-18T03:26:50;3.00;;;1.70;;
58918;SDS011;44704;50.122;19.932;2022-07-18T03:29:17;4.80;;;1.80;;
58918;SDS011;44704;50.122;19.932;2022-07-18T03:31:46;5.20;;;1.80;;
58918;SDS011;44704;50.122;19.932;2022-07-18T03:34:21;3.90;;;1.90;;
58918;SDS011;44704;50.122;19.932;2022-07-18T03:37:05;6.20;;;2.10;;
58918;SDS011;44704;50.122;19.932;2022-07-18T03:39:32;3.50;;;1.90;;
58918;SDS011;44704;50.122;19.932;2022-07-18T03:41:59;5.90;;;2.40;;
58918;SDS011;44704;50.122;19.932;2022-07-18T03:44:40;8.60;;;2.30;;
58918;SDS011;44704;50.122;19.932;2022-07-18T03:47:07;4.20;;;2.10;;
58918;SDS011;44704;50.122;19.932;2022-07-18T03:49:37;4.90;;;2.10;;
58918;SDS011;44704;50.122;19.932;2022-07-18T03:52:04;8.80;;;2.40;;
58918;SDS011;44704;50.122;19.932;2022-07-18T03:54:36;6.00;;;2.40;;
58918;SDS011;44704;50.122;19.932;2022-07-18T03:59:43;5.50;;;2.70;;
58918;SDS011;44704;50.122;19.932;2022-07-18T04:02:10;4.70;;;2.60;;
58918;SDS011;44704;50.122;19.932;2022-07-18T04:04:38;7.80;;;3.00;;
58918;SDS011;44704;50.122;19.932;2022-07-18T04:07:19;5.80;;;2.70;;
58918;SDS011;44704;50.122;19.932;2022-07-18T04:09:46;8.40;;;2.70;;
58918;SDS011;44704;50.122;19.932;2022-07-18T04:12:13;5.20;;;2.80;;
58918;SDS011;44704;50.122;19.932;2022-07-18T04:14:44;6.50;;;3.10;;
58918;SDS011;44704;50.122;19.932;2022-07-18T04:17:25;5.20;;;3.30;;
58918;SDS011;44704;50.122;19.932;2022-07-18T04:20:07;6.20;;;3.30;;
58918;SDS011;44704;50.122;19.932;2022-07-18T04:22:48;7.90;;;3.30;;
58918;SDS011;44704;50.122;19.932;2022-07-18T04:25:15;10.10;;;3.30;;
58918;SDS011;44704;50.122;19.932;2022-07-18T04:28:00;5.50;;;2.90;;
58918;SDS011;44704;50.122;19.932;2022-07-18T04:30:27;7.10;;;3.40;;
58918;SDS011;44704;50.122;19.932;2022-07-18T04:32:55;9.00;;;3.10;;
58918;SDS011;44704;50.122;19.932;2022-07-18T04:35:25;7.60;;;3.50;;
58918;SDS011;44704;50.122;19.932;2022-07-18T04:40:21;7.30;;;3.50;;
58918;SDS011;44704;50.122;19.932;2022-07-18T04:42:51;6.80;;;3.50;;
58918;SDS011;44704;50.122;19.932;2022-07-18T04:45:18;8.50;;;3.70;;
58918;SDS011;44704;50.122;19.932;2022-07-18T04:47:48;6.20;;;3.60;;
58918;SDS011;44704;50.122;19.932;2022-07-18T04:50:30;11.60;;;4.20;;
58918;SDS011;44704;50.122;19.932;2022-07-18T04:53:00;8.90;;;3.70;;
58918;SDS011;44704;50.122;19.932;2022-07-18T04:55:31;11.00;;;4.30;;
58918;SDS011;44704;50.122;19.932;2022-07-18T04:57:58;12.30;;;4.30;;
58918;SDS011;44704;50.122;19.932;2022-07-18T05:00:39;11.50;;;4.30;;
58918;SDS011;44704;50.122;19.932;2022-07-18T05:03:06;7.40;;;3.80;;
58918;SDS011;44704;50.122;19.932;2022-07-18T05:05:33;9.60;;;4.20;;
58918;SDS011;44704;50.122;19.932;2022-07-18T05:08:00;10.20;;;4.20;;
58918;SDS011;44704;50.122;19.932;2022-07-18T05:10:27;11.40;;;4.00;;
58918;SDS011;44704;50.122;19.932;2022-07-18T05:12:54;15.00;;;5.20;;
58918;SDS011;44704;50.122;19.932;2022-07-18T05:15:22;10.10;;;4.80;;
58918;SDS011;44704;50.122;19.932;2022-07-18T05:18:04;12.60;;;4.90;;
58918;SDS011;44704;50.122;19.932;2022-07-18T05:20:45;9.70;;;4.10;;
58918;SDS011;44704;50.122;19.932;2022-07-18T05:23:15;11.40;;;5.00;;
58918;SDS011;44704;50.122;19.932;2022-07-18T05:25:42;14.80;;;4.30;;
58918;SDS011;44704;50.122;19.932;2022-07-18T05:28:10;11.30;;;4.50;;
58918;SDS011;44704;50.122;19.932;2022-07-18T05:30:37;16.60;;;4.50;;
58918;SDS011;44704;50.122;19.932;2022-07-18T05:33:04;9.00;;;4.70;;
58918;SDS011;44704;50.122;19.932;2022-07-18T05:35:45;12.20;;;4.60;;
58918;SDS011;44704;50.122;19.932;2022-07-18T05:38:12;16.10;;;4.70;;
58918;SDS011;44704;50.122;19.932;2022-07-18T05:40:39;15.10;;;4.70;;
58918;SDS011;44704;50.122;19.932;2022-07-18T05:43:06;12.50;;;4.90;;
58918;SDS011;44704;50.122;19.932;2022-07-18T05:45:47;13.40;;;4.80;;
58918;SDS011;44704;50.122;19.932;2022-07-18T05:48:14;10.50;;;4.00;;
58918;SDS011;44704;50.122;19.932;2022-07-18T05:50:41;12.60;;;4.00;;
58918;SDS011;44704;50.122;19.932;2022-07-18T05:53:22;9.10;;;4.40;;
58918;SDS011;44704;50.122;19.932;2022-07-18T05:56:03;13.90;;;3.80;;
58918;SDS011;44704;50.122;19.932;2022-07-18T05:58:31;13.20;;;3.50;;
58918;SDS011;44704;50.122;19.932;2022-07-18T06:00:58;12.70;;;3.60;;
58918;SDS011;44704;50.122;19.932;2022-07-18T06:03:25;13.20;;;3.80;;
58918;SDS011;44704;50.122;19.932;2022-07-18T06:05:52;10.20;;;3.50;;
58918;SDS011;44704;50.122;19.932;2022-07-18T06:08:33;9.00;;;3.60;;
58918;SDS011;44704;50.122;19.932;2022-07-18T06:11:00;11.80;;;3.30;;
58918;SDS011;44704;50.122;19.932;2022-07-18T06:13:30;10.90;;;3.20;;
58918;SDS011;44704;50.122;19.932;2022-07-18T06:16:11;12.60;;;3.10;;
58918;SDS011;44704;50.122;19.932;2022-07-18T06:18:38;9.00;;;3.60;;
58918;SDS011;44704;50.122;19.932;2022-07-18T06:21:19;22.00;;;4.20;;
58918;SDS011;44704;50.122;19.932;2022-07-18T06:23:46;14.40;;;3.90;;
58918;SDS011;44704;50.122;19.932;2022-07-18T06:26:13;14.00;;;4.10;;
58918;SDS011;44704;50.122;19.932;2022-07-18T06:28:40;14.80;;;4.30;;
58918;SDS011;44704;50.122;19.932;2022-07-18T06:31:07;16.70;;;4.30;;
58918;SDS011;44704;50.122;19.932;2022-07-18T06:33:34;8.80;;;4.40;;
58918;SDS011;44704;50.122;19.932;2022-07-18T06:36:01;11.60;;;4.10;;
58918;SDS011;44704;50.122;19.932;2022-07-18T06:38:42;12.70;;;3.70;;
58918;SDS011;44704;50.122;19.932;2022-07-18T06:41:10;14.80;;;4.30;;
58918;SDS011;44704;50.122;19.932;2022-07-18T06:43:37;14.30;;;4.30;;
58918;SDS011;44704;50.122;19.932;2022-07-18T06:46:05;12.60;;;4.60;;
58918;SDS011;44704;50.122;19.932;2022-07-18T06:48:46;28.90;;;7.00;;
58918;SDS011;44704;50.122;19.932;2022-07-18T06:51:26;26.70;;;7.80;;
58918;SDS011;44704;50.122;19.932;2022-07-18T06:53:53;18.70;;;5.10;;
58918;SDS011;44704;50.122;19.932;2022-07-18T06:56:21;20.00;;;4.90;;
58918;SDS011;44704;50.122;19.932;2022-07-18T06:58:48;14.60;;;4.10;;
58918;SDS011;44704;50.122;19.932;2022-07-18T07:01:17;13.00;;;3.60;;
58918;SDS011;44704;50.122;19.932;2022-07-18T07:03:46;20.30;;;4.40;;
58918;SDS011;44704;50.122;19.932;2022-07-18T07:06:14;15.60;;;4.00;;
58918;SDS011;44704;50.122;19.932;2022-07-18T07:08:42;12.80;;;3.10;;
58918;SDS011;44704;50.122;19.932;2022-07-18T07:11:13;9.20;;;3.30;;
58918;SDS011;44704;50.122;19.932;2022-07-18T07:13:41;11.90;;;3.20;;
58918;SDS011;44704;50.122;19.932;2022-07-18T07:16:08;12.00;;;3.60;;
58918;SDS011;44704;50.122;19.932;2022-07-18T07:18:44;16.40;;;3.10;;
58918;SDS011;44704;50.122;19.932;2022-07-18T07:21:12;18.10;;;3.80;;
58918;SDS011;44704;50.122;19.932;2022-07-18T07:23:53;10.90;;;2.90;;
58918;SDS011;44704;50.122;19.932;2022-07-18T07:26:29;7.50;;;2.30;;
58918;SDS011;44704;50.122;19.932;2022-07-18T07:29:27;6.30;;;2.40;;
58918;SDS011;44704;50.122;19.932;2022-07-18T07:31:57;5.90;;;2.40;;
58918;SDS011;44704;50.122;19.932;2022-07-18T07:34:24;7.40;;;2.20;;
58918;SDS011;44704;50.122;19.932;2022-07-18T07:36:51;4.60;;;2.00;;
58918;SDS011;44704;50.122;19.932;2022-07-18T07:39:18;5.00;;;2.20;;
58918;SDS011;44704;50.122;19.932;2022-07-18T07:41:45;9.70;;;2.50;;
58918;SDS011;44704;50.122;19.932;2022-07-18T07:44:12;14.70;;;2.90;;
58918;SDS011;44704;50.122;19.932;2022-07-18T07:46:39;8.40;;;2.10;;
58918;SDS011;44704;50.122;19.932;2022-07-18T07:49:07;5.70;;;1.90;;
58918;SDS011;44704;50.122;19.932;2022-07-18T07:51:48;4.70;;;1.50;;
58918;SDS011;44704;50.122;19.932;2022-07-18T07:54:15;4.10;;;1.60;;
58918;SDS011;44704;50.122;19.932;2022-07-18T07:56:56;3.40;;;1.30;;
58918;SDS011;44704;50.122;19.932;2022-07-18T07:59:23;3.00;;;1.30;;
58918;SDS011;44704;50.122;19.932;2022-07-18T08:01:51;5.60;;;1.80;;
58918;SDS011;44704;50.122;19.932;2022-07-18T08:04:32;5.10;;;1.60;;
58918;SDS011;44704;50.122;19.932;2022-07-18T08:07:00;6.50;;;2.10;;
58918;SDS011;44704;50.122;19.932;2022-07-18T08:09:42;4.00;;;1.40;;
58918;SDS011;44704;50.122;19.932;2022-07-18T08:12:33;3.70;;;1.20;;
58918;SDS011;44704;50.122;19.932;2022-07-18T08:15:00;4.70;;;1.80;;
58918;SDS011;44704;50.122;19.932;2022-07-18T08:17:27;4.30;;;1.50;;
58918;SDS011;44704;50.122;19.932;2022-07-18T08:19:55;5.90;;;1.80;;
58918;SDS011;44704;50.122;19.932;2022-07-18T08:22:23;5.50;;;1.70;;
58918;SDS011;44704;50.122;19.932;2022-07-18T08:24:52;5.10;;;1.40;;
58918;SDS011;44704;50.122;19.932;2022-07-18T08:27:23;4.30;;;1.40;;
58918;SDS011;44704;50.122;19.932;2022-07-18T08:29:50;2.40;;;1.40;;
58918;SDS011;44704;50.122;19.932;2022-07-18T08:32:17;4.10;;;1.30;;
58918;SDS011;44704;50.122;19.932;2022-07-18T08:34:58;6.00;;;1.60;;
58918;SDS011;44704;50.122;19.932;2022-07-18T08:37:26;4.30;;;1.40;;
58918;SDS011;44704;50.122;19.932;2022-07-18T08:39:53;3.00;;;1.20;;
58918;SDS011;44704;50.122;19.932;2022-07-18T08:42:21;3.60;;;1.30;;
58918;SDS011;44704;50.122;19.932;2022-07-18T08:44:53;5.20;;;1.30;;
58918;SDS011;44704;50.122;19.932;2022-07-18T08:47:23;3.90;;;1.20;;
58918;SDS011;44704;50.122;19.932;2022-07-18T08:49:52;3.80;;;1.40;;
58918;SDS011;44704;50.122;19.932;2022-07-18T08:52:20;5.30;;;1.60;;
58918;SDS011;44704;50.122;19.932;2022-07-18T08:54:48;6.00;;;1.40;;
58918;SDS011;44704;50.122;19.932;2022-07-18T08:57:17;5.40;;;1.30;;
58918;SDS011;44704;50.122;19.932;2022-07-18T08:59:45;4.50;;;1.40;;
58918;SDS011;44704;50.122;19.932;2022-07-18T09:02:13;5.40;;;1.20;;
58918;SDS011;44704;50.122;19.932;2022-07-18T09:04:41;4.40;;;1.70;;
58918;SDS011;44704;50.122;19.932;2022-07-18T09:07:10;3.70;;;1.30;;
58918;SDS011;44704;50.122;19.932;2022-07-18T09:09:54;2.90;;;1.20;;
58918;SDS011;44704;50.122;19.932;2022-07-18T09:12:24;6.00;;;1.50;;
58918;SDS011;44704;50.122;19.932;2022-07-18T09:14:53;4.80;;;1.30;;
58918;SDS011;44704;50.122;19.932;2022-07-18T09:17:25;3.00;;;1.10;;
58918;SDS011;44704;50.122;19.932;2022-07-18T09:19:59;4.40;;;1.80;;
58918;SDS011;44704;50.122;19.932;2022-07-18T09:22:54;3.10;;;1.20;;
58918;SDS011;44704;50.122;19.932;2022-07-18T09:25:21;7.60;;;1.30;;
58918;SDS011;44704;50.122;19.932;2022-07-18T09:28:04;3.80;;;2.10;;
58918;SDS011;44704;50.122;19.932;2022-07-18T09:30:36;5.30;;;1.30;;
58918;SDS011;44704;50.122;19.932;2022-07-18T09:38:28;5.10;;;1.60;;
58918;SDS011;44704;50.122;19.932;2022-07-18T09:40:56;2.00;;;1.00;;
58918;SDS011;44704;50.122;19.932;2022-07-18T09:43:24;3.40;;;1.30;;
58918;SDS011;44704;50.122;19.932;2022-07-18T09:45:55;2.90;;;1.10;;
58918;SDS011;44704;50.122;19.932;2022-07-18T09:48:24;2.90;;;1.20;;
58918;SDS011;44704;50.122;19.932;2022-07-18T09:50:53;3.80;;;1.40;;
58918;SDS011;44704;50.122;19.932;2022-07-18T09:53:23;5.00;;;1.60;;
58918;SDS011;44704;50.122;19.932;2022-07-18T09:55:54;5.20;;;1.50;;
58918;SDS011;44704;50.122;19.932;2022-07-18T09:58:24;2.90;;;1.30;;
58918;SDS011;44704;50.122;19.932;2022-07-18T10:00:58;4.80;;;1.30;;
58918;SDS011;44704;50.122;19.932;2022-07-18T10:03:28;4.10;;;1.40;;
58918;SDS011;44704;50.122;19.932;2022-07-18T10:05:56;4.60;;;1.40;;
58918;SDS011;44704;50.122;19.932;2022-07-18T10:08:26;2.70;;;1.30;;
58918;SDS011;44704;50.122;19.932;2022-07-18T10:10:55;3.90;;;1.50;;
58918;SDS011;44704;50.122;19.932;2022-07-18T10:13:26;5.10;;;1.50;;
58918;SDS011;44704;50.122;19.932;2022-07-18T10:15:55;4.00;;;1.40;;
58918;SDS011;44704;50.122;19.932;2022-07-18T10:18:24;7.40;;;1.40;;
58918;SDS011;44704;50.122;19.932;2022-07-18T10:20:58;3.00;;;1.40;;
58918;SDS011;44704;50.122;19.932;2022-07-18T10:26:22;3.10;;;1.40;;
58918;SDS011;44704;50.122;19.932;2022-07-18T10:31:39;4.30;;;1.70;;
58918;SDS011;44704;50.122;19.932;2022-07-18T10:34:09;5.60;;;1.50;;
58918;SDS011;44704;50.122;19.932;2022-07-18T10:39:37;5.10;;;1.70;;
58918;SDS011;44704;50.122;19.932;2022-07-18T10:42:20;4.80;;;1.60;;
58918;SDS011;44704;50.122;19.932;2022-07-18T10:44:51;3.90;;;1.50;;
58918;SDS011;44704;50.122;19.932;2022-07-18T10:47:33;3.20;;;1.50;;
58918;SDS011;44704;50.122;19.932;2022-07-18T10:50:04;3.20;;;1.40;;
58918;SDS011;44704;50.122;19.932;2022-07-18T11:00:18;5.20;;;1.30;;
58918;SDS011;44704;50.122;19.932;2022-07-18T11:03:10;4.70;;;1.30;;
58918;SDS011;44704;50.122;19.932;2022-07-18T11:05:52;3.90;;;1.80;;
58918;SDS011;44704;50.122;19.932;2022-07-18T11:08:35;6.60;;;2.10;;
58918;SDS011;44704;50.122;19.932;2022-07-18T11:11:04;5.80;;;1.90;;
58918;SDS011;44704;50.122;19.932;2022-07-18T11:13:36;3.80;;;1.50;;
58918;SDS011;44704;50.122;19.932;2022-07-18T11:16:20;2.40;;;1.60;;
58918;SDS011;44704;50.122;19.932;2022-07-18T11:21:28;6.10;;;1.60;;
58918;SDS011;44704;50.122;19.932;2022-07-18T11:24:01;6.60;;;1.90;;
58918;SDS011;44704;50.122;19.932;2022-07-18T11:26:37;5.50;;;1.70;;
58918;SDS011;44704;50.122;19.932;2022-07-18T11:29:10;3.90;;;1.70;;
58918;SDS011;44704;50.122;19.932;2022-07-18T11:31:44;4.20;;;1.60;;
58918;SDS011;44704;50.122;19.932;2022-07-18T11:34:16;4.30;;;1.70;;
58918;SDS011;44704;50.122;19.932;2022-07-18T11:36:58;3.10;;;1.50;;
58918;SDS011;44704;50.122;19.932;2022-07-18T11:39:36;3.90;;;1.80;;
58918;SDS011;44704;50.122;19.932;2022-07-18T11:42:04;4.30;;;1.80;;
58918;SDS011;44704;50.122;19.932;2022-07-18T11:44:31;8.40;;;1.70;;
58918;SDS011;44704;50.122;19.932;2022-07-18T11:47:16;5.30;;;1.90;;
58918;SDS011;44704;50.122;19.932;2022-07-18T11:49:54;7.40;;;1.80;;
58918;SDS011;44704;50.122;19.932;2022-07-18T11:52:24;4.80;;;1.50;;
58918;SDS011;44704;50.122;19.932;2022-07-18T11:54:53;4.70;;;1.30;;
58918;SDS011;44704;50.122;19.932;2022-07-18T11:57:52;2.80;;;1.50;;
58918;SDS011;44704;50.122;19.932;2022-07-18T12:00:19;5.50;;;1.70;;
58918;SDS011;44704;50.122;19.932;2022-07-18T12:03:18;4.10;;;1.90;;
58918;SDS011;44704;50.122;19.932;2022-07-18T12:05:48;3.00;;;1.50;;
58918;SDS011;44704;50.122;19.932;2022-07-18T12:08:38;4.20;;;1.50;;
58918;SDS011;44704;50.122;19.932;2022-07-18T12:11:30;8.20;;;1.70;;
58918;SDS011;44704;50.122;19.932;2022-07-18T12:14:15;2.90;;;1.60;;
58918;SDS011;44704;50.122;19.932;2022-07-18T12:16:57;4.00;;;1.70;;
58918;SDS011;44704;50.122;19.932;2022-07-18T12:19:32;4.10;;;1.50;;
58918;SDS011;44704;50.122;19.932;2022-07-18T12:27:23;3.30;;;1.40;;
58918;SDS011;44704;50.122;19.932;2022-07-18T12:30:08;3.10;;;1.60;;
58918;SDS011;44704;50.122;19.932;2022-07-18T12:35:33;4.30;;;1.40;;
58918;SDS011;44704;50.122;19.932;2022-07-18T12:38:12;5.30;;;1.50;;
58918;SDS011;44704;50.122;19.932;2022-07-18T12:43:16;7.30;;;1.80;;
58918;SDS011;44704;50.122;19.932;2022-07-18T12:45:51;3.20;;;1.40;;
58918;SDS011;44704;50.122;19.932;2022-07-18T12:48:20;5.60;;;2.00;;
58918;SDS011;44704;50.122;19.932;2022-07-18T12:53:34;4.80;;;1.50;;
58918;SDS011;44704;50.122;19.932;2022-07-18T12:56:04;4.60;;;1.40;;
58918;SDS011;44704;50.122;19.932;2022-07-18T12:58:46;5.30;;;1.80;;
58918;SDS011;44704;50.122;19.932;2022-07-18T13:01:13;3.00;;;1.40;;
58918;SDS011;44704;50.122;19.932;2022-07-18T13:03:54;2.90;;;1.20;;
58918;SDS011;44704;50.122;19.932;2022-07-18T13:06:21;6.20;;;2.10;;
58918;SDS011;44704;50.122;19.932;2022-07-18T13:08:48;2.50;;;1.60;;
58918;SDS011;44704;50.122;19.932;2022-07-18T13:11:16;2.70;;;1.50;;
58918;SDS011;44704;50.122;19.932;2022-07-18T13:13:43;4.90;;;1.60;;
58918;SDS011;44704;50.122;19.932;2022-07-18T13:16:10;3.20;;;1.60;;
58918;SDS011;44704;50.122;19.932;2022-07-18T13:18:37;5.80;;;1.60;;
58918;SDS011;44704;50.122;19.932;2022-07-18T13:21:04;5.90;;;1.80;;
58918;SDS011;44704;50.122;19.932;2022-07-18T13:23:31;5.60;;;1.50;;
58918;SDS011;44704;50.122;19.932;2022-07-18T13:25:58;5.70;;;2.00;;
58918;SDS011;44704;50.122;19.932;2022-07-18T13:28:25;3.70;;;1.60;;
58918;SDS011;44704;50.122;19.932;2022-07-18T13:30:54;2.80;;;1.50;;
58918;SDS011;44704;50.122;19.932;2022-07-18T13:33:21;2.90;;;1.70;;
58918;SDS011;44704;50.122;19.932;2022-07-18T13:35:48;5.50;;;1.60;;
58918;SDS011;44704;50.122;19.932;2022-07-18T13:38:15;2.70;;;1.30;;
58918;SDS011;44704;50.122;19.932;2022-07-18T13:40:57;3.90;;;1.70;;
58918;SDS011;44704;50.122;19.932;2022-07-18T13:43:24;5.10;;;1.70;;
58918;SDS011;44704;50.122;19.932;2022-07-18T13:45:54;3.20;;;1.20;;
58918;SDS011;44704;50.122;19.932;2022-07-18T13:48:35;2.50;;;1.20;;
58918;SDS011;44704;50.122;19.932;2022-07-18T13:51:05;3.80;;;1.60;;
58918;SDS011;44704;50.122;19.932;2022-07-18T13:53:46;2.40;;;1.30;;
58918;SDS011;44704;50.122;19.932;2022-07-18T13:56:14;3.20;;;1.70;;
58918;SDS011;44704;50.122;19.932;2022-07-18T13:58:41;5.90;;;1.30;;
58918;SDS011;44704;50.122;19.932;2022-07-18T14:01:08;4.10;;;1.70;;
58918;SDS011;44704;50.122;19.932;2022-07-18T14:03:35;3.40;;;1.40;;
58918;SDS011;44704;50.122;19.932;2022-07-18T14:06:02;2.90;;;1.20;;
58918;SDS011;44704;50.122;19.932;2022-07-18T14:08:30;2.30;;;1.20;;
58918;SDS011;44704;50.122;19.932;2022-07-18T14:10:57;3.80;;;1.50;;
58918;SDS011;44704;50.122;19.932;2022-07-18T14:13:24;3.30;;;1.40;;
58918;SDS011;44704;50.122;19.932;2022-07-18T14:16:05;3.00;;;1.40;;
58918;SDS011;44704;50.122;19.932;2022-07-18T14:18:32;3.80;;;1.80;;
58918;SDS011;44704;50.122;19.932;2022-07-18T14:20:59;5.30;;;1.70;;
58918;SDS011;44704;50.122;19.932;2022-07-18T14:23:27;3.70;;;1.60;;
58918;SDS011;44704;50.122;19.932;2022-07-18T14:26:08;3.10;;;1.50;;
58918;SDS011;44704;50.122;19.932;2022-07-18T14:28:35;5.00;;;2.00;;
58918;SDS011;44704;50.122;19.932;2022-07-18T14:31:02;3.50;;;1.70;;
58918;SDS011;44704;50.122;19.932;2022-07-18T14:33:29;5.50;;;2.00;;
58918;SDS011;44704;50.122;19.932;2022-07-18T14:35:56;4.60;;;1.60;;
58918;SDS011;44704;50.122;19.932;2022-07-18T14:38:37;3.10;;;1.80;;
58918;SDS011;44704;50.122;19.932;2022-07-18T14:41:04;3.30;;;1.50;;
58918;SDS011;44704;50.122;19.932;2022-07-18T14:43:33;3.20;;;1.60;;
58918;SDS011;44704;50.122;19.932;2022-07-18T14:46:00;5.20;;;1.30;;
58918;SDS011;44704;50.122;19.932;2022-07-18T14:48:27;7.20;;;2.40;;
58918;SDS011;44704;50.122;19.932;2022-07-18T14:50:54;3.90;;;1.50;;
58918;SDS011;44704;50.122;19.932;2022-07-18T14:53:21;4.90;;;1.50;;
58918;SDS011;44704;50.122;19.932;2022-07-18T14:56:02;3.80;;;1.70;;
58918;SDS011;44704;50.122;19.932;2022-07-18T14:58:29;3.60;;;1.80;;
58918;SDS011;44704;50.122;19.932;2022-07-18T15:00:57;2.80;;;1.50;;
58918;SDS011;44704;50.122;19.932;2022-07-18T15:03:38;3.00;;;1.40;;
58918;SDS011;44704;50.122;19.932;2022-07-18T15:06:05;3.90;;;1.50;;
58918;SDS011;44704;50.122;19.932;2022-07-18T15:08:32;4.20;;;1.50;;
58918;SDS011;44704;50.122;19.932;2022-07-18T15:11:13;3.10;;;1.40;;
58918;SDS011;44704;50.122;19.932;2022-07-18T15:13:41;3.60;;;1.40;;
58918;SDS011;44704;50.122;19.932;2022-07-18T15:16:08;5.40;;;1.70;;
58918;SDS011;44704;50.122;19.932;2022-07-18T15:18:49;6.50;;;1.70;;
58918;SDS011;44704;50.122;19.932;2022-07-18T15:21:16;4.10;;;1.40;;
58918;SDS011;44704;50.122;19.932;2022-07-18T15:23:43;4.50;;;1.80;;
58918;SDS011;44704;50.122;19.932;2022-07-18T15:26:24;4.70;;;1.60;;
58918;SDS011;44704;50.122;19.932;2022-07-18T15:29:06;6.00;;;1.50;;
58918;SDS011;44704;50.122;19.932;2022-07-18T15:31:34;6.20;;;1.60;;
58918;SDS011;44704;50.122;19.932;2022-07-18T15:34:15;4.80;;;1.60;;
58918;SDS011;44704;50.122;19.932;2022-07-18T15:36:42;7.10;;;1.50;;
58918;SDS011;44704;50.122;19.932;2022-07-18T15:39:09;2.80;;;1.40;;
58918;SDS011;44704;50.122;19.932;2022-07-18T15:41:38;3.40;;;1.10;;
58918;SDS011;44704;50.122;19.932;2022-07-18T15:44:09;3.50;;;2.00;;